sensor_id;sensor_type;location;lat;lon;timestamp;pressure;altitude;pressure_sealevel;temperature;humidity
42067;BME280;27734;47.028;28.820;2023-01-30T00:00:19;100826.39;;;-0.63;77.34
42067;BME280;27734;47.028;28.820;2023-01-30T00:03:10;100822.93;;;-0.63;76.90
42067;BME280;27734;47.028;28.820;2023-01-30T00:05:42;100830.80;;;-0.62;76.94
42067;BME280;27734;47.028;28.820;2023-01-30T00:08:13;100833.23;;;-0.63;77.14
42067;BME280;27734;47.028;28.820;2023-01-30T00:10:45;100825.50;;;-0.63;76.62
42067;BME280;27734;47.028;28.820;2023-01-30T00:13:16;100821.38;;;-0.61;76.89
42067;BME280;27734;47.028;28.820;2023-01-30T00:15:48;100829.11;;;-0.61;76.81
42067;BME280;27734;47.028;28.820;2023-01-30T00:18:19;100821.24;;;-0.63;77.16
42067;BME280;27734;47.028;28.820;2023-01-30T00:20:55;100821.11;;;-0.64;76.89
42067;BME280;27734;47.028;28.820;2023-01-30T00:23:28;100828.71;;;-0.66;76.79
42067;BME280;27734;47.028;28.820;2023-01-30T00:26:00;100828.58;;;-0.67;76.95
42067;BME280;27734;47.028;28.820;2023-01-30T00:28:32;100836.18;;;-0.69;76.91
42067;BME280;27734;47.028;28.820;2023-01-30T00:31:03;100836.05;;;-0.70;77.22
42067;BME280;27734;47.028;28.820;2023-01-30T00:33:37;100842.89;;;-0.71;77.22
42067;BME280;27734;47.028;28.820;2023-01-30T00:36:10;100847.16;;;-0.71;77.17
42067;BME280;27734;47.028;28.820;2023-01-30T00:38:41;100851.38;;;-0.72;76.67
42067;BME280;27734;47.028;28.820;2023-01-30T00:41:13;100842.76;;;-0.73;76.88
42067;BME280;27734;47.028;28.820;2023-01-30T00:43:45;100844.58;;;-0.71;76.53
42067;BME280;27734;47.028;28.820;2023-01-30T00:46:36;100842.00;;;-0.71;77.42
42067;BME280;27734;47.028;28.820;2023-01-30T00:49:25;100838.62;;;-0.70;76.49
42067;BME280;27734;47.028;28.820;2023-01-30T00:51:56;100838.62;;;-0.70;76.40
42067;BME280;27734;47.028;28.820;2023-01-30T00:54:28;100834.27;;;-0.71;76.65
42067;BME280;27734;47.028;28.820;2023-01-30T00:57:01;100827.30;;;-0.73;76.64
42067;BME280;27734;47.028;28.820;2023-01-30T00:59:34;100834.27;;;-0.71;76.93
42067;BME280;27734;47.028;28.820;2023-01-30T01:02:05;100826.53;;;-0.71;76.94
42067;BME280;27734;47.028;28.820;2023-01-30T01:04:36;100824.84;;;-0.71;76.84
42067;BME280;27734;47.028;28.820;2023-01-30T01:07:13;100829.24;;;-0.70;77.40
42067;BME280;27734;47.028;28.820;2023-01-30T01:09:44;100826.67;;;-0.70;76.91
42067;BME280;27734;47.028;28.820;2023-01-30T01:12:16;100821.52;;;-0.70;76.46
42067;BME280;27734;47.028;28.820;2023-01-30T01:14:56;100816.36;;;-0.70;76.81
42067;BME280;27734;47.028;28.820;2023-01-30T01:17:27;100814.67;;;-0.69;77.30
42067;BME280;27734;47.028;28.820;2023-01-30T01:19:58;100811.08;;;-0.71;76.75
42067;BME280;27734;47.028;28.820;2023-01-30T01:22:30;100806.68;;;-0.73;76.64
42067;BME280;27734;47.028;28.820;2023-01-30T01:25:01;100807.44;;;-0.74;77.37
42067;BME280;27734;47.028;28.820;2023-01-30T01:27:32;100808.23;;;-0.75;76.81
42067;BME280;27734;47.028;28.820;2023-01-30T01:30:05;100808.99;;;-0.76;76.29
42067;BME280;27734;47.028;28.820;2023-01-30T01:32:36;100805.39;;;-0.78;76.05
42067;BME280;27734;47.028;28.820;2023-01-30T01:35:09;100806.16;;;-0.79;76.22
42067;BME280;27734;47.028;28.820;2023-01-30T01:37:40;100812.06;;;-0.80;76.48
42067;BME280;27734;47.028;28.820;2023-01-30T01:40:18;100807.58;;;-0.82;76.98
42067;BME280;27734;47.028;28.820;2023-01-30T01:43:20;100807.58;;;-0.82;76.55
42067;BME280;27734;47.028;28.820;2023-01-30T01:45:54;100800.73;;;-0.82;76.51
42067;BME280;27734;47.028;28.820;2023-01-30T01:48:31;100800.60;;;-0.83;76.18
42067;BME280;27734;47.028;28.820;2023-01-30T01:51:07;100796.34;;;-0.83;76.38
42067;BME280;27734;47.028;28.820;2023-01-30T01:53:44;100798.92;;;-0.83;76.37
42067;BME280;27734;47.028;28.820;2023-01-30T01:56:19;100789.67;;;-0.81;76.30
42067;BME280;27734;47.028;28.820;2023-01-30T01:58:53;100787.09;;;-0.81;76.24
42067;BME280;27734;47.028;28.820;2023-01-30T02:01:26;100784.52;;;-0.81;76.75
42067;BME280;27734;47.028;28.820;2023-01-30T02:04:01;100781.02;;;-0.81;76.08
42067;BME280;27734;47.028;28.820;2023-01-30T02:06:33;100781.81;;;-0.82;76.36
42067;BME280;27734;47.028;28.820;2023-01-30T02:09:09;100782.56;;;-0.83;76.33
42067;BME280;27734;47.028;28.820;2023-01-30T02:11:48;100778.97;;;-0.85;76.04
42067;BME280;27734;47.028;28.820;2023-01-30T02:14:23;100772.00;;;-0.86;76.40
42067;BME280;27734;47.028;28.820;2023-01-30T02:16:55;100770.18;;;-0.87;76.44
42067;BME280;27734;47.028;28.820;2023-01-30T02:19:33;100770.98;;;-0.88;76.00
42067;BME280;27734;47.028;28.820;2023-01-30T02:22:23;100765.95;;;-0.87;76.04
42067;BME280;27734;47.028;28.820;2023-01-30T02:28:37;100765.42;;;-0.83;76.04
42067;BME280;27734;47.028;28.820;2023-01-30T02:31:27;100763.11;;;-0.80;76.35
42067;BME280;27734;47.028;28.820;2023-01-30T02:34:13;100764.03;;;-0.79;75.95
42067;BME280;27734;47.028;28.820;2023-01-30T02:36:58;100766.61;;;-0.79;76.19
42067;BME280;27734;47.028;28.820;2023-01-30T02:39:40;100763.23;;;-0.78;75.41
42067;BME280;27734;47.028;28.820;2023-01-30T02:42:26;100755.01;;;-0.74;75.71
42067;BME280;27734;47.028;28.820;2023-01-30T02:45:05;100751.54;;;-0.75;76.24
42067;BME280;27734;47.028;28.820;2023-01-30T02:47:43;100749.86;;;-0.74;75.65
42067;BME280;27734;47.028;28.820;2023-01-30T02:50:20;100741.99;;;-0.76;75.54
42067;BME280;27734;47.028;28.820;2023-01-30T02:52:54;100737.59;;;-0.77;74.84
42067;BME280;27734;47.028;28.820;2023-01-30T02:55:27;100736.08;;;-0.75;75.02
42067;BME280;27734;47.028;28.820;2023-01-30T02:58:00;100731.19;;;-0.71;75.96
42067;BME280;27734;47.028;28.820;2023-01-30T03:00:56;100732.20;;;-0.69;76.01
42067;BME280;27734;47.028;28.820;2023-01-30T03:03:46;100727.17;;;-0.68;75.46
42067;BME280;27734;47.028;28.820;2023-01-30T03:06:45;100729.88;;;-0.66;76.16
42067;BME280;27734;47.028;28.820;2023-01-30T03:09:29;100710.16;;;-0.66;75.92
42067;BME280;27734;47.028;28.820;2023-01-30T03:12:11;100714.80;;;-0.62;75.66
42067;BME280;27734;47.028;28.820;2023-01-30T03:14:54;100713.91;;;-0.62;75.56
42067;BME280;27734;47.028;28.820;2023-01-30T03:17:29;100715.70;;;-0.61;75.43
42067;BME280;27734;47.028;28.820;2023-01-30T03:20:12;100708.09;;;-0.60;75.59
42067;BME280;27734;47.028;28.820;2023-01-30T03:22:47;100721.23;;;-0.57;75.73
42067;BME280;27734;47.028;28.820;2023-01-30T03:25:21;100715.45;;;-0.54;75.27
42067;BME280;27734;47.028;28.820;2023-01-30T03:27:56;100707.97;;;-0.51;75.87
42067;BME280;27734;47.028;28.820;2023-01-30T03:30:29;100713.25;;;-0.49;75.77
42067;BME280;27734;47.028;28.820;2023-01-30T03:33:07;100707.30;;;-0.48;75.37
42067;BME280;27734;47.028;28.820;2023-01-30T03:35:40;100700.48;;;-0.48;74.88
42067;BME280;27734;47.028;28.820;2023-01-30T03:38:15;100706.16;;;-0.52;75.07
42067;BME280;27734;47.028;28.820;2023-01-30T03:40:47;100704.38;;;-0.53;75.30
42067;BME280;27734;47.028;28.820;2023-01-30T03:43:18;100701.00;;;-0.52;75.01
42067;BME280;27734;47.028;28.820;2023-01-30T03:45:50;100701.00;;;-0.52;74.81
42067;BME280;27734;47.028;28.820;2023-01-30T03:48:21;100697.66;;;-0.51;74.98
42067;BME280;27734;47.028;28.820;2023-01-30T03:50:53;100695.08;;;-0.51;74.77
42067;BME280;27734;47.028;28.820;2023-01-30T03:53:25;100698.67;;;-0.49;75.43
42067;BME280;27734;47.028;28.820;2023-01-30T03:55:56;100698.03;;;-0.46;75.37
42067;BME280;27734;47.028;28.820;2023-01-30T03:58:30;100703.31;;;-0.45;74.87
42067;BME280;27734;47.028;28.820;2023-01-30T04:01:02;100693.00;;;-0.45;75.09
42067;BME280;27734;47.028;28.820;2023-01-30T04:03:34;100687.05;;;-0.44;75.48
42067;BME280;27734;47.028;28.820;2023-01-30T04:06:07;100687.18;;;-0.42;75.33
42067;BME280;27734;47.028;28.820;2023-01-30T04:08:39;100689.88;;;-0.41;75.12
42067;BME280;27734;47.028;28.820;2023-01-30T04:11:10;100685.78;;;-0.39;75.35
42067;BME280;27734;47.028;28.820;2023-01-30T04:13:42;100676.23;;;-0.40;75.30
42067;BME280;27734;47.028;28.820;2023-01-30T04:16:18;100680.50;;;-0.40;75.12
42067;BME280;27734;47.028;28.820;2023-01-30T04:19:07;100682.27;;;-0.39;74.49
42067;BME280;27734;47.028;28.820;2023-01-30T04:21:38;100683.20;;;-0.39;74.66
42067;BME280;27734;47.028;28.820;2023-01-30T04:24:10;100683.20;;;-0.39;75.17
42067;BME280;27734;47.028;28.820;2023-01-30T04:26:41;100678.05;;;-0.39;74.47
42067;BME280;27734;47.028;28.820;2023-01-30T04:29:13;100685.91;;;-0.37;74.50
42067;BME280;27734;47.028;28.820;2023-01-30T04:31:44;100674.79;;;-0.36;74.55
42067;BME280;27734;47.028;28.820;2023-01-30T04:34:25;100676.61;;;-0.35;74.11
42067;BME280;27734;47.028;28.820;2023-01-30T04:36:56;100678.30;;;-0.35;74.75
42067;BME280;27734;47.028;28.820;2023-01-30T04:39:27;100676.61;;;-0.35;74.44
42067;BME280;27734;47.028;28.820;2023-01-30T04:41:59;100678.42;;;-0.34;75.09
42067;BME280;27734;47.028;28.820;2023-01-30T04:44:31;100678.55;;;-0.32;74.88
42067;BME280;27734;47.028;28.820;2023-01-30T04:47:11;100678.55;;;-0.32;75.14
42067;BME280;27734;47.028;28.820;2023-01-30T04:49:42;100676.86;;;-0.32;74.30
42067;BME280;27734;47.028;28.820;2023-01-30T04:52:15;100670.94;;;-0.31;74.86
42067;BME280;27734;47.028;28.820;2023-01-30T04:54:46;100668.48;;;-0.29;74.28
42067;BME280;27734;47.028;28.820;2023-01-30T04:57:18;100666.92;;;-0.27;74.43
42067;BME280;27734;47.028;28.820;2023-01-30T04:59:49;100671.44;;;-0.25;74.62
42067;BME280;27734;47.028;28.820;2023-01-30T05:02:21;100667.17;;;-0.24;74.16
42067;BME280;27734;47.028;28.820;2023-01-30T05:04:52;100665.48;;;-0.24;74.99
42067;BME280;27734;47.028;28.820;2023-01-30T05:07:23;100666.28;;;-0.25;74.43
42067;BME280;27734;47.028;28.820;2023-01-30T05:09:55;100667.17;;;-0.24;74.84
42067;BME280;27734;47.028;28.820;2023-01-30T05:12:26;100669.75;;;-0.24;74.85
42067;BME280;27734;47.028;28.820;2023-01-30T05:14:57;100670.52;;;-0.25;75.04
42067;BME280;27734;47.028;28.820;2023-01-30T05:17:29;100663.70;;;-0.25;74.67
42067;BME280;27734;47.028;28.820;2023-01-30T05:20:00;100673.09;;;-0.25;74.51
42067;BME280;27734;47.028;28.820;2023-01-30T05:22:31;100666.41;;;-0.23;74.55
42067;BME280;27734;47.028;28.820;2023-01-30T05:25:03;100664.71;;;-0.23;74.27
42067;BME280;27734;47.028;28.820;2023-01-30T05:27:34;100665.60;;;-0.22;74.69
42067;BME280;27734;47.028;28.820;2023-01-30T05:30:07;100666.53;;;-0.22;74.49
42067;BME280;27734;47.028;28.820;2023-01-30T05:32:39;100664.84;;;-0.21;74.86
42067;BME280;27734;47.028;28.820;2023-01-30T05:35:10;100667.55;;;-0.20;74.82
42067;BME280;27734;47.028;28.820;2023-01-30T05:37:41;100669.11;;;-0.22;74.51
42067;BME280;27734;47.028;28.820;2023-01-30T05:40:14;100671.81;;;-0.20;74.25
42067;BME280;27734;47.028;28.820;2023-01-30T05:42:46;100668.31;;;-0.21;73.86
42067;BME280;27734;47.028;28.820;2023-01-30T05:45:17;100666.66;;;-0.20;74.31
42067;BME280;27734;47.028;28.820;2023-01-30T05:47:52;100664.84;;;-0.21;74.46
42067;BME280;27734;47.028;28.820;2023-01-30T05:50:23;100657.99;;;-0.21;74.07
42067;BME280;27734;47.028;28.820;2023-01-30T05:52:54;100662.51;;;-0.18;74.54
42067;BME280;27734;47.028;28.820;2023-01-30T05:55:28;100656.59;;;-0.17;73.80
42067;BME280;27734;47.028;28.820;2023-01-30T05:57:59;100655.66;;;-0.17;73.79
42067;BME280;27734;47.028;28.820;2023-01-30T06:00:30;100646.27;;;-0.17;73.82
42067;BME280;27734;47.028;28.820;2023-01-30T06:03:02;100653.33;;;-0.14;73.57
42067;BME280;27734;47.028;28.820;2023-01-30T06:05:35;100652.69;;;-0.12;74.50
42067;BME280;27734;47.028;28.820;2023-01-30T06:08:07;100653.05;;;-0.07;74.16
42067;BME280;27734;47.028;28.820;2023-01-30T06:10:39;100658.71;;;-0.01;74.39
42067;BME280;27734;47.028;28.820;2023-01-30T06:13:10;100656.50;;;0.04;74.23
42067;BME280;27734;47.028;28.820;2023-01-30T06:15:41;100659.33;;;0.07;73.88
42067;BME280;27734;47.028;28.820;2023-01-30T06:18:13;100658.41;;;0.06;73.50
42067;BME280;27734;47.028;28.820;2023-01-30T06:20:48;100658.52;;;0.08;73.91
42067;BME280;27734;47.028;28.820;2023-01-30T06:23:20;100658.77;;;0.11;73.71
42067;BME280;27734;47.028;28.820;2023-01-30T06:25:53;100655.55;;;0.13;73.80
42067;BME280;27734;47.028;28.820;2023-01-30T06:28:25;100655.79;;;0.16;74.04
42067;BME280;27734;47.028;28.820;2023-01-30T06:30:56;100654.34;;;0.20;73.86
42067;BME280;27734;47.028;28.820;2023-01-30T06:33:27;100650.11;;;0.21;74.13
42067;BME280;27734;47.028;28.820;2023-01-30T06:35:59;100653.58;;;0.21;74.06
42067;BME280;27734;47.028;28.820;2023-01-30T06:38:32;100646.59;;;0.20;73.21
42067;BME280;27734;47.028;28.820;2023-01-30T06:41:06;100646.72;;;0.22;73.15
42067;BME280;27734;47.028;28.820;2023-01-30T06:43:38;100647.64;;;0.22;73.73
42067;BME280;27734;47.028;28.820;2023-01-30T06:46:11;100644.27;;;0.23;73.70
42067;BME280;27734;47.028;28.820;2023-01-30T06:48:42;100648.78;;;0.26;73.33
42067;BME280;27734;47.028;28.820;2023-01-30T06:51:15;100641.92;;;0.26;73.34
42067;BME280;27734;47.028;28.820;2023-01-30T06:53:46;100636.12;;;0.29;73.27
42067;BME280;27734;47.028;28.820;2023-01-30T06:56:18;100633.53;;;0.29;73.67
42067;BME280;27734;47.028;28.820;2023-01-30T06:58:50;100631.31;;;0.33;73.40
42067;BME280;27734;47.028;28.820;2023-01-30T07:01:22;100627.40;;;0.39;73.25
42067;BME280;27734;47.028;28.820;2023-01-30T07:03:53;100626.22;;;0.45;73.27
42067;BME280;27734;47.028;28.820;2023-01-30T07:06:26;100627.35;;;0.49;73.52
42067;BME280;27734;47.028;28.820;2023-01-30T07:08:57;100624.89;;;0.50;73.78
42067;BME280;27734;47.028;28.820;2023-01-30T07:11:29;100625.25;;;0.55;73.55
42067;BME280;27734;47.028;28.820;2023-01-30T07:14:01;100622.34;;;0.62;73.47
42067;BME280;27734;47.028;28.820;2023-01-30T07:16:35;100609.89;;;0.68;73.26
42067;BME280;27734;47.028;28.820;2023-01-30T07:19:10;100614.77;;;0.76;73.62
42067;BME280;27734;47.028;28.820;2023-01-30T07:21:45;100613.42;;;0.81;73.53
42067;BME280;27734;47.028;28.820;2023-01-30T07:24:20;100604.01;;;0.81;73.08
42067;BME280;27734;47.028;28.820;2023-01-30T07:26:58;100607.06;;;0.87;73.14
42067;BME280;27734;47.028;28.820;2023-01-30T07:29:31;100605.59;;;0.91;72.88
42067;BME280;27734;47.028;28.820;2023-01-30T07:32:25;100604.02;;;0.93;73.33
42067;BME280;27734;47.028;28.820;2023-01-30T07:34:57;100599.20;;;0.98;73.03
42067;BME280;27734;47.028;28.820;2023-01-30T07:37:29;100599.55;;;1.02;73.23
42067;BME280;27734;47.028;28.820;2023-01-30T07:40:08;100595.84;;;1.11;73.49
42067;BME280;27734;47.028;28.820;2023-01-30T07:42:43;100597.34;;;1.19;73.27
42067;BME280;27734;47.028;28.820;2023-01-30T07:45:33;100594.17;;;1.23;72.50
42067;BME280;27734;47.028;28.820;2023-01-30T07:48:06;100586.64;;;1.26;72.92
42067;BME280;27734;47.028;28.820;2023-01-30T07:50:42;100588.02;;;1.33;72.40
42067;BME280;27734;47.028;28.820;2023-01-30T07:53:16;100590.14;;;1.38;72.67
42067;BME280;27734;47.028;28.820;2023-01-30T07:55:49;100585.42;;;1.44;72.22
42067;BME280;27734;47.028;28.820;2023-01-30T07:58:21;100587.80;;;1.53;72.25
42067;BME280;27734;47.028;28.820;2023-01-30T08:00:55;100580.81;;;1.64;72.40
42067;BME280;27734;47.028;28.820;2023-01-30T08:03:28;100576.27;;;1.85;72.25
42067;BME280;27734;47.028;28.820;2023-01-30T08:06:02;100565.69;;;1.94;72.76
42067;BME280;27734;47.028;28.820;2023-01-30T08:08:37;100566.02;;;1.98;72.02
42067;BME280;27734;47.028;28.820;2023-01-30T08:11:12;100563.21;;;1.95;72.44
42067;BME280;27734;47.028;28.820;2023-01-30T08:13:44;100566.91;;;1.99;72.25
42067;BME280;27734;47.028;28.820;2023-01-30T08:16:16;100557.20;;;2.08;72.17
42067;BME280;27734;47.028;28.820;2023-01-30T08:18:49;100555.83;;;2.13;71.76
42067;BME280;27734;47.028;28.820;2023-01-30T08:21:21;100556.05;;;2.16;71.66
42067;BME280;27734;47.028;28.820;2023-01-30T08:23:57;100546.71;;;2.19;71.41
42067;BME280;27734;47.028;28.820;2023-01-30T08:26:30;100550.86;;;2.16;71.15
42067;BME280;27734;47.028;28.820;2023-01-30T08:29:03;100544.37;;;2.10;69.36
42067;BME280;27734;47.028;28.820;2023-01-30T08:31:35;100549.16;;;1.92;67.49
42067;BME280;27734;47.028;28.820;2023-01-30T08:34:09;100539.81;;;1.94;70.70
42067;BME280;27734;47.028;28.820;2023-01-30T08:36:41;100549.44;;;2.08;71.18
42067;BME280;27734;47.028;28.820;2023-01-30T08:39:20;100540.83;;;2.21;71.10
42067;BME280;27734;47.028;28.820;2023-01-30T08:41:54;100540.12;;;2.36;70.99
42067;BME280;27734;47.028;28.820;2023-01-30T08:44:29;100538.37;;;2.48;70.48
42067;BME280;27734;47.028;28.820;2023-01-30T08:47:02;100531.81;;;2.53;70.85
42067;BME280;27734;47.028;28.820;2023-01-30T08:49:45;100525.03;;;2.55;70.53
42067;BME280;27734;47.028;28.820;2023-01-30T08:52:37;100531.59;;;2.50;69.65
42067;BME280;27734;47.028;28.820;2023-01-30T08:55:12;100512.58;;;2.49;69.64
42067;BME280;27734;47.028;28.820;2023-01-30T08:57:45;100510.88;;;2.50;69.01
42067;BME280;27734;47.028;28.820;2023-01-30T09:00:19;100510.41;;;2.56;69.56
42067;BME280;27734;47.028;28.820;2023-01-30T09:02:58;100502.34;;;2.64;70.09
42067;BME280;27734;47.028;28.820;2023-01-30T09:05:32;100492.70;;;2.75;69.70
42067;BME280;27734;47.028;28.820;2023-01-30T09:08:04;100490.41;;;2.80;70.10
42067;BME280;27734;47.028;28.820;2023-01-30T09:10:36;100480.45;;;2.86;68.73
42067;BME280;27734;47.028;28.820;2023-01-30T09:13:12;100474.98;;;2.95;69.40
42067;BME280;27734;47.028;28.820;2023-01-30T09:15:47;100469.28;;;3.00;69.50
42067;BME280;27734;47.028;28.820;2023-01-30T09:18:19;100464.00;;;2.99;68.98
42067;BME280;27734;47.028;28.820;2023-01-30T09:20:50;100454.25;;;2.95;69.57
42067;BME280;27734;47.028;28.820;2023-01-30T09:23:31;100452.55;;;2.95;69.30
42067;BME280;27734;47.028;28.820;2023-01-30T09:26:04;100449.65;;;2.91;69.40
42067;BME280;27734;47.028;28.820;2023-01-30T09:28:40;100443.97;;;2.83;69.02
42067;BME280;27734;47.028;28.820;2023-01-30T09:31:14;100435.00;;;2.78;69.03
42067;BME280;27734;47.028;28.820;2023-01-30T09:33:51;100434.28;;;2.80;69.43
42067;BME280;27734;47.028;28.820;2023-01-30T09:36:36;100431.69;;;2.80;68.90
42067;BME280;27734;47.028;28.820;2023-01-30T09:39:10;100420.52;;;2.68;69.18
42067;BME280;27734;47.028;28.820;2023-01-30T09:41:58;100414.56;;;2.56;69.62
42067;BME280;27734;47.028;28.820;2023-01-30T09:45:15;100408.36;;;2.40;68.87
42067;BME280;27734;47.028;28.820;2023-01-30T09:48:05;100410.53;;;2.34;68.93
42067;BME280;27734;47.028;28.820;2023-01-30T09:51:04;100401.27;;;2.38;67.99
42067;BME280;27734;47.028;28.820;2023-01-30T09:53:52;100391.11;;;2.41;68.48
42067;BME280;27734;47.028;28.820;2023-01-30T09:56:27;100380.08;;;2.43;69.18
42067;BME280;27734;47.028;28.820;2023-01-30T09:59:02;100376.46;;;2.41;68.81
42067;BME280;27734;47.028;28.820;2023-01-30T10:01:43;100367.42;;;2.48;68.26
42067;BME280;27734;47.028;28.820;2023-01-30T10:04:26;100361.73;;;2.54;68.29
42067;BME280;27734;47.028;28.820;2023-01-30T10:07:12;100360.16;;;2.56;68.65
42067;BME280;27734;47.028;28.820;2023-01-30T10:09:52;100348.30;;;2.59;68.49
42067;BME280;27734;47.028;28.820;2023-01-30T10:12:32;100345.70;;;2.59;66.30
42067;BME280;27734;47.028;28.820;2023-01-30T10:15:16;100339.02;;;2.63;68.61
42067;BME280;27734;47.028;28.820;2023-01-30T10:18:14;100332.42;;;2.68;67.92
42067;BME280;27734;47.028;28.820;2023-01-30T10:20:55;100327.14;;;2.66;67.75
42067;BME280;27734;47.028;28.820;2023-01-30T10:23:44;100323.47;;;2.63;68.46
42067;BME280;27734;47.028;28.820;2023-01-30T10:26:20;100321.96;;;2.66;67.92
42067;BME280;27734;47.028;28.820;2023-01-30T10:28:57;100308.13;;;2.79;68.28
42067;BME280;27734;47.028;28.820;2023-01-30T10:31:39;100304.89;;;2.97;67.91
42067;BME280;27734;47.028;28.820;2023-01-30T10:34:23;100292.03;;;2.98;67.30
42067;BME280;27734;47.028;28.820;2023-01-30T10:36:59;100291.73;;;2.94;66.73
42067;BME280;27734;47.028;28.820;2023-01-30T10:39:43;100281.29;;;2.79;67.45
42067;BME280;27734;47.028;28.820;2023-01-30T10:42:22;100272.53;;;2.77;67.24
42067;BME280;27734;47.028;28.820;2023-01-30T10:45:07;100269.25;;;2.79;67.47
42067;BME280;27734;47.028;28.820;2023-01-30T10:48:00;100253.41;;;2.75;66.47
42067;BME280;27734;47.028;28.820;2023-01-30T10:50:46;100252.69;;;2.77;66.95
42067;BME280;27734;47.028;28.820;2023-01-30T10:53:23;100241.53;;;2.78;66.17
42067;BME280;27734;47.028;28.820;2023-01-30T10:56:07;100232.30;;;2.68;64.97
42067;BME280;27734;47.028;28.820;2023-01-30T10:58:47;100235.30;;;2.61;65.49
42067;BME280;27734;47.028;28.820;2023-01-30T11:01:25;100225.55;;;2.57;65.95
42067;BME280;27734;47.028;28.820;2023-01-30T11:04:12;100210.11;;;2.59;66.93
42067;BME280;27734;47.028;28.820;2023-01-30T11:06:45;100206.20;;;2.65;66.40
42067;BME280;27734;47.028;28.820;2023-01-30T11:09:17;100195.84;;;2.65;65.47
42067;BME280;27734;47.028;28.820;2023-01-30T11:11:54;100188.76;;;2.63;66.33
42067;BME280;27734;47.028;28.820;2023-01-30T11:14:26;100182.41;;;2.58;65.50
42067;BME280;27734;47.028;28.820;2023-01-30T11:16:58;100178.02;;;2.57;65.74
42067;BME280;27734;47.028;28.820;2023-01-30T11:19:33;100173.66;;;2.56;66.05
42067;BME280;27734;47.028;28.820;2023-01-30T11:22:09;100172.05;;;2.58;66.35
42067;BME280;27734;47.028;28.820;2023-01-30T11:24:44;100162.66;;;2.60;64.56
42067;BME280;27734;47.028;28.820;2023-01-30T11:27:20;100157.19;;;2.55;65.90
42067;BME280;27734;47.028;28.820;2023-01-30T11:30:03;100149.33;;;2.54;64.81
42067;BME280;27734;47.028;28.820;2023-01-30T11:32:36;100145.66;;;2.50;65.29
42067;BME280;27734;47.028;28.820;2023-01-30T11:35:26;100138.59;;;2.47;65.67
42067;BME280;27734;47.028;28.820;2023-01-30T11:38:19;100132.23;;;2.42;65.09
42067;BME280;27734;47.028;28.820;2023-01-30T11:41:03;100120.90;;;2.40;65.96
42067;BME280;27734;47.028;28.820;2023-01-30T11:43:39;100116.60;;;2.41;65.77
42067;BME280;27734;47.028;28.820;2023-01-30T11:46:14;100109.12;;;2.45;66.29
42067;BME280;27734;47.028;28.820;2023-01-30T11:48:53;100099.92;;;2.50;65.92
42067;BME280;27734;47.028;28.820;2023-01-30T11:51:27;100107.09;;;2.55;66.29
42067;BME280;27734;47.028;28.820;2023-01-30T11:54:05;100099.33;;;2.55;66.41
42067;BME280;27734;47.028;28.820;2023-01-30T11:56:47;100090.77;;;2.56;65.71
42067;BME280;27734;47.028;28.820;2023-01-30T11:59:28;100091.27;;;2.50;65.01
42067;BME280;27734;47.028;28.820;2023-01-30T12:02:18;100088.59;;;2.48;65.54
42067;BME280;27734;47.028;28.820;2023-01-30T12:04:56;100083.03;;;2.42;64.15
42067;BME280;27734;47.028;28.820;2023-01-30T12:07:32;100077.57;;;2.38;66.20
42067;BME280;27734;47.028;28.820;2023-01-30T12:10:27;100076.88;;;2.40;65.71
42067;BME280;27734;47.028;28.820;2023-01-30T12:13:15;100061.05;;;2.36;65.45
42067;BME280;27734;47.028;28.820;2023-01-30T12:15:56;100058.19;;;2.31;64.83
42067;BME280;27734;47.028;28.820;2023-01-30T12:18:36;100053.60;;;2.27;65.48
42067;BME280;27734;47.028;28.820;2023-01-30T12:21:31;100037.98;;;2.25;65.88
42067;BME280;27734;47.028;28.820;2023-01-30T12:24:21;100035.30;;;2.24;65.70
42067;BME280;27734;47.028;28.820;2023-01-30T12:27:22;100032.13;;;2.14;65.36
42067;BME280;27734;47.028;28.820;2023-01-30T12:30:03;100027.50;;;2.09;65.38
42067;BME280;27734;47.028;28.820;2023-01-30T12:32:35;100033.17;;;2.03;65.35
42067;BME280;27734;47.028;28.820;2023-01-30T12:35:16;100018.97;;;1.96;63.25
42067;BME280;27734;47.028;28.820;2023-01-30T12:37:58;100015.47;;;1.96;65.19
42067;BME280;27734;47.028;28.820;2023-01-30T12:40:48;100015.75;;;2.01;65.44
42067;BME280;27734;47.028;28.820;2023-01-30T12:43:36;100023.61;;;2.02;65.58
42067;BME280;27734;47.028;28.820;2023-01-30T12:46:20;100019.45;;;2.04;65.08
42067;BME280;27734;47.028;28.820;2023-01-30T12:49:07;100012.47;;;2.03;65.53
42067;BME280;27734;47.028;28.820;2023-01-30T12:52:02;100009.98;;;2.05;65.51
42067;BME280;27734;47.028;28.820;2023-01-30T12:54:49;100018.81;;;2.08;65.58
42067;BME280;27734;47.028;28.820;2023-01-30T12:57:30;100014.71;;;2.12;65.50
42067;BME280;27734;47.028;28.820;2023-01-30T13:00:27;100018.22;;;2.12;65.50
42067;BME280;27734;47.028;28.820;2023-01-30T13:03:17;100020.80;;;2.12;65.45
42067;BME280;27734;47.028;28.820;2023-01-30T13:05:54;100007.86;;;2.12;65.14
42067;BME280;27734;47.028;28.820;2023-01-30T13:08:46;100023.99;;;2.08;65.58
42067;BME280;27734;47.028;28.820;2023-01-30T13:11:45;100016.38;;;1.96;65.23
42067;BME280;27734;47.028;28.820;2023-01-30T13:14:25;100023.37;;;1.84;65.36
42067;BME280;27734;47.028;28.820;2023-01-30T13:17:13;100010.05;;;1.78;65.35
42067;BME280;27734;47.028;28.820;2023-01-30T13:19:54;100011.92;;;1.80;66.02
42067;BME280;27734;47.028;28.820;2023-01-30T13:22:33;100006.84;;;1.82;66.00
42067;BME280;27734;47.028;28.820;2023-01-30T13:25:17;99996.69;;;1.85;66.15
42067;BME280;27734;47.028;28.820;2023-01-30T13:27:56;99991.03;;;1.77;65.96
42067;BME280;27734;47.028;28.820;2023-01-30T13:30:30;99983.52;;;1.67;65.46
42067;BME280;27734;47.028;28.820;2023-01-30T13:33:10;99981.33;;;1.60;65.69
42067;BME280;27734;47.028;28.820;2023-01-30T13:35:46;99979.27;;;1.54;66.03
42067;BME280;27734;47.028;28.820;2023-01-30T13:38:25;99973.09;;;1.52;66.00